sensor_id;sensor_type;location;lat;lon;timestamp;pressure;altitude;pressure_sealevel;temperature;humidity
70103;BME280;57470;50.034;15.256;2023-10-31T00:00:12;97377.66;;;16.54;96.44
70103;BME280;57470;50.034;15.256;2023-10-31T00:02:38;97391.69;;;16.56;95.85
70103;BME280;57470;50.034;15.256;2023-10-31T00:05:04;97383.00;;;16.75;95.56
70103;BME280;57470;50.034;15.256;2023-10-31T00:07:30;97386.09;;;16.72;95.66
70103;BME280;57470;50.034;15.256;2023-10-31T00:09:55;97387.75;;;16.73;95.44
70103;BME280;57470;50.034;15.256;2023-10-31T00:12:21;97380.72;;;16.72;94.91
70103;BME280;57470;50.034;15.256;2023-10-31T00:14:47;97375.72;;;16.97;93.70
70103;BME280;57470;50.034;15.256;2023-10-31T00:17:12;97373.47;;;17.00;93.59
70103;BME280;57470;50.034;15.256;2023-10-31T00:19:37;97373.56;;;16.85;93.84
70103;BME280;57470;50.034;15.256;2023-10-31T00:22:03;97368.34;;;16.77;93.83
70103;BME280;57470;50.034;15.256;2023-10-31T00:24:28;97366.13;;;16.81;93.76
70103;BME280;57470;50.034;15.256;2023-10-31T00:26:54;97372.59;;;16.93;93.32
70103;BME280;57470;50.034;15.256;2023-10-31T00:29:19;97370.19;;;17.05;93.82
70103;BME280;57470;50.034;15.256;2023-10-31T00:31:45;97364.13;;;16.62;94.77
70103;BME280;57470;50.034;15.256;2023-10-31T00:34:10;97362.56;;;16.52;94.67
70103;BME280;57470;50.034;15.256;2023-10-31T00:36:35;97356.19;;;16.54;94.60
70103;BME280;57470;50.034;15.256;2023-10-31T00:39:01;97365.09;;;16.61;94.32
70103;BME280;57470;50.034;15.256;2023-10-31T00:41:26;97354.06;;;16.49;94.54
70103;BME280;57470;50.034;15.256;2023-10-31T00:43:51;97346.66;;;16.51;94.60
70103;BME280;57470;50.034;15.256;2023-10-31T00:46:17;97347.09;;;16.55;94.57
70103;BME280;57470;50.034;15.256;2023-10-31T00:48:42;97338.09;;;16.41;94.58
70103;BME280;57470;50.034;15.256;2023-10-31T00:51:08;97340.81;;;16.47;94.59
70103;BME280;57470;50.034;15.256;2023-10-31T00:53:33;97327.75;;;16.38;94.73
70103;BME280;57470;50.034;15.256;2023-10-31T00:55:58;97334.25;;;16.50;94.35
70103;BME280;57470;50.034;15.256;2023-10-31T00:58:24;97327.03;;;16.50;93.89
70103;BME280;57470;50.034;15.256;2023-10-31T01:00:49;97336.28;;;16.48;94.25
70103;BME280;57470;50.034;15.256;2023-10-31T01:03:14;97341.06;;;16.46;94.05
70103;BME280;57470;50.034;15.256;2023-10-31T01:05:40;97346.59;;;16.44;94.44
70103;BME280;57470;50.034;15.256;2023-10-31T01:08:05;97340.31;;;16.37;94.98
70103;BME280;57470;50.034;15.256;2023-10-31T01:10:31;97343.84;;;16.38;94.52
70103;BME280;57470;50.034;15.256;2023-10-31T01:12:56;97340.78;;;16.41;94.17
70103;BME280;57470;50.034;15.256;2023-10-31T01:15:21;97343.16;;;16.29;94.47
70103;BME280;57470;50.034;15.256;2023-10-31T01:17:47;97337.03;;;16.35;94.63
70103;BME280;57470;50.034;15.256;2023-10-31T01:20:12;97343.91;;;16.44;94.00
70103;BME280;57470;50.034;15.256;2023-10-31T01:22:38;97336.94;;;16.50;94.00
70103;BME280;57470;50.034;15.256;2023-10-31T01:25:04;97347.34;;;16.60;93.29
70103;BME280;57470;50.034;15.256;2023-10-31T01:27:30;97341.31;;;16.79;92.94
70103;BME280;57470;50.034;15.256;2023-10-31T01:29:55;97331.53;;;16.43;93.32
70103;BME280;57470;50.034;15.256;2023-10-31T01:32:20;97329.88;;;16.42;93.23
70103;BME280;57470;50.034;15.256;2023-10-31T01:34:46;97337.88;;;16.36;93.42
70103;BME280;57470;50.034;15.256;2023-10-31T01:37:11;97334.78;;;16.39;93.57
70103;BME280;57470;50.034;15.256;2023-10-31T01:39:39;97328.72;;;16.30;93.35
70103;BME280;57470;50.034;15.256;2023-10-31T01:42:04;97325.28;;;16.36;93.26
70103;BME280;57470;50.034;15.256;2023-10-31T01:44:30;97321.16;;;16.40;92.88
70103;BME280;57470;50.034;15.256;2023-10-31T01:46:55;97326.34;;;16.42;92.90
70103;BME280;57470;50.034;15.256;2023-10-31T01:49:21;97323.53;;;16.29;93.33
70103;BME280;57470;50.034;15.256;2023-10-31T01:51:47;97323.94;;;16.26;92.98
70103;BME280;57470;50.034;15.256;2023-10-31T01:54:14;97331.41;;;16.30;93.01
70103;BME280;57470;50.034;15.256;2023-10-31T01:56:40;97339.63;;;16.29;93.68
70103;BME280;57470;50.034;15.256;2023-10-31T01:59:06;97338.25;;;16.33;94.14
70103;BME280;57470;50.034;15.256;2023-10-31T02:01:40;97340.72;;;16.34;93.60
70103;BME280;57470;50.034;15.256;2023-10-31T02:04:06;97370.75;;;16.44;93.65
70103;BME280;57470;50.034;15.256;2023-10-31T02:06:32;97383.28;;;16.86;93.15
70103;BME280;57470;50.034;15.256;2023-10-31T02:08:57;97403.28;;;16.84;92.65
70103;BME280;57470;50.034;15.256;2023-10-31T02:11:22;97398.09;;;16.55;93.45
70103;BME280;57470;50.034;15.256;2023-10-31T02:13:48;97408.94;;;16.89;92.19
70103;BME280;57470;50.034;15.256;2023-10-31T02:16:13;97403.25;;;17.05;91.48
70103;BME280;57470;50.034;15.256;2023-10-31T02:18:39;97411.63;;;16.89;91.65
70103;BME280;57470;50.034;15.256;2023-10-31T02:21:04;97408.25;;;16.80;91.96
70103;BME280;57470;50.034;15.256;2023-10-31T02:23:30;97402.94;;;16.44;94.03
70103;BME280;57470;50.034;15.256;2023-10-31T02:25:55;97406.78;;;16.78;93.88
70103;BME280;57470;50.034;15.256;2023-10-31T02:28:20;97407.28;;;16.88;93.25
70103;BME280;57470;50.034;15.256;2023-10-31T02:30:46;97415.06;;;16.83;93.57
70103;BME280;57470;50.034;15.256;2023-10-31T02:33:11;97418.00;;;16.88;93.74
70103;BME280;57470;50.034;15.256;2023-10-31T02:35:36;97414.22;;;17.10;92.27
70103;BME280;57470;50.034;15.256;2023-10-31T02:38:02;97419.00;;;16.80;93.15
70103;BME280;57470;50.034;15.256;2023-10-31T02:40:27;97426.59;;;16.77;93.11
70103;BME280;57470;50.034;15.256;2023-10-31T02:42:53;97426.72;;;16.90;92.85
70103;BME280;57470;50.034;15.256;2023-10-31T02:45:18;97434.94;;;16.88;92.30
70103;BME280;57470;50.034;15.256;2023-10-31T02:47:45;97430.50;;;17.02;92.14
70103;BME280;57470;50.034;15.256;2023-10-31T02:50:12;97431.81;;;16.85;92.59
70103;BME280;57470;50.034;15.256;2023-10-31T02:52:39;97435.38;;;16.92;91.65
70103;BME280;57470;50.034;15.256;2023-10-31T02:55:05;97423.34;;;16.81;90.86
70103;BME280;57470;50.034;15.256;2023-10-31T02:57:32;97436.06;;;16.73;91.48
70103;BME280;57470;50.034;15.256;2023-10-31T02:59:59;97428.09;;;16.86;90.36
70103;BME280;57470;50.034;15.256;2023-10-31T03:02:26;97438.50;;;16.96;90.44
70103;BME280;57470;50.034;15.256;2023-10-31T03:04:52;97441.16;;;16.89;90.82
70103;BME280;57470;50.034;15.256;2023-10-31T03:07:19;97440.41;;;17.02;90.39
70103;BME280;57470;50.034;15.256;2023-10-31T03:09:46;97442.03;;;16.96;90.92
70103;BME280;57470;50.034;15.256;2023-10-31T03:12:13;97451.16;;;17.02;90.79
70103;BME280;57470;50.034;15.256;2023-10-31T03:14:39;97443.97;;;16.81;91.35
70103;BME280;57470;50.034;15.256;2023-10-31T03:17:06;97448.38;;;16.67;92.11
70103;BME280;57470;50.034;15.256;2023-10-31T03:19:33;97454.13;;;16.64;92.49
70103;BME280;57470;50.034;15.256;2023-10-31T03:22:00;97461.41;;;16.49;93.65
70103;BME280;57470;50.034;15.256;2023-10-31T03:24:27;97473.22;;;16.33;94.26
70103;BME280;57470;50.034;15.256;2023-10-31T03:26:53;97476.53;;;16.35;94.68
70103;BME280;57470;50.034;15.256;2023-10-31T03:29:21;97481.50;;;16.02;95.84
70103;BME280;57470;50.034;15.256;2023-10-31T03:31:48;97483.34;;;16.02;96.25
70103;BME280;57470;50.034;15.256;2023-10-31T03:34:14;97496.75;;;16.02;97.21
70103;BME280;57470;50.034;15.256;2023-10-31T03:36:41;97496.09;;;16.14;96.76
70103;BME280;57470;50.034;15.256;2023-10-31T03:39:06;97493.34;;;15.49;99.33
70103;BME280;57470;50.034;15.256;2023-10-31T03:41:32;97508.00;;;15.91;98.94
70103;BME280;57470;50.034;15.256;2023-10-31T03:43:57;97503.25;;;15.93;98.27
70103;BME280;57470;50.034;15.256;2023-10-31T03:46:23;97505.66;;;15.88;98.58
70103;BME280;57470;50.034;15.256;2023-10-31T03:48:48;97504.97;;;15.64;99.48
70103;BME280;57470;50.034;15.256;2023-10-31T03:51:13;97506.84;;;15.41;100.00
70103;BME280;57470;50.034;15.256;2023-10-31T03:53:39;97513.38;;;15.24;100.00
70103;BME280;57470;50.034;15.256;2023-10-31T03:56:04;97504.94;;;15.12;100.00
70103;BME280;57470;50.034;15.256;2023-10-31T03:58:30;97509.53;;;14.66;100.00
70103;BME280;57470;50.034;15.256;2023-10-31T04:00:55;97516.63;;;14.96;100.00
70103;BME280;57470;50.034;15.256;2023-10-31T04:03:21;97504.78;;;14.76;100.00
70103;BME280;57470;50.034;15.256;2023-10-31T04:05:46;97518.22;;;15.06;100.00
70103;BME280;57470;50.034;15.256;2023-10-31T04:08:11;97512.97;;;14.75;100.00
70103;BME280;57470;50.034;15.256;2023-10-31T04:10:37;97515.34;;;14.70;100.00
70103;BME280;57470;50.034;15.256;2023-10-31T04:13:02;97506.78;;;14.74;100.00
70103;BME280;57470;50.034;15.256;2023-10-31T04:15:27;97519.16;;;14.52;100.00
70103;BME280;57470;50.034;15.256;2023-10-31T04:17:53;97529.63;;;14.85;100.00
70103;BME280;57470;50.034;15.256;2023-10-31T04:20:18;97533.13;;;14.85;100.00
70103;BME280;57470;50.034;15.256;2023-10-31T04:22:44;97530.41;;;14.48;100.00
70103;BME280;57470;50.034;15.256;2023-10-31T04:25:09;97534.19;;;14.53;100.00
70103;BME280;57470;50.034;15.256;2023-10-31T04:27:34;97533.91;;;14.48;100.00
70103;BME280;57470;50.034;15.256;2023-10-31T04:30:01;97531.09;;;14.34;100.00
70103;BME280;57470;50.034;15.256;2023-10-31T04:32:26;97541.50;;;14.28;100.00
70103;BME280;57470;50.034;15.256;2023-10-31T04:34:52;97548.72;;;14.20;100.00
70103;BME280;57470;50.034;15.256;2023-10-31T04:37:17;97544.00;;;14.30;100.00
70103;BME280;57470;50.034;15.256;2023-10-31T04:39:42;97546.97;;;14.35;100.00
70103;BME280;57470;50.034;15.256;2023-10-31T04:42:08;97538.72;;;14.53;100.00
70103;BME280;57470;50.034;15.256;2023-10-31T04:44:33;97550.91;;;14.55;100.00
70103;BME280;57470;50.034;15.256;2023-10-31T04:46:58;97557.50;;;14.45;100.00
70103;BME280;57470;50.034;15.256;2023-10-31T04:49:24;97559.50;;;14.35;100.00
70103;BME280;57470;50.034;15.256;2023-10-31T04:51:49;97559.72;;;13.94;100.00
70103;BME280;57470;50.034;15.256;2023-10-31T04:54:14;97579.53;;;14.08;100.00
70103;BME280;57470;50.034;15.256;2023-10-31T04:56:40;97574.69;;;14.11;100.00
70103;BME280;57470;50.034;15.256;2023-10-31T04:59:05;97584.41;;;14.04;100.00
70103;BME280;57470;50.034;15.256;2023-10-31T05:01:31;97584.66;;;14.17;100.00
70103;BME280;57470;50.034;15.256;2023-10-31T05:03:56;97599.97;;;13.93;100.00
70103;BME280;57470;50.034;15.256;2023-10-31T05:06:22;97599.09;;;14.00;100.00
70103;BME280;57470;50.034;15.256;2023-10-31T05:08:49;97608.81;;;13.93;100.00
70103;BME280;57470;50.034;15.256;2023-10-31T05:11:17;97613.38;;;13.76;100.00
70103;BME280;57470;50.034;15.256;2023-10-31T05:13:44;97623.69;;;13.96;100.00
70103;BME280;57470;50.034;15.256;2023-10-31T05:16:09;97610.19;;;13.73;100.00
70103;BME280;57470;50.034;15.256;2023-10-31T05:18:36;97615.53;;;13.73;100.00
70103;BME280;57470;50.034;15.256;2023-10-31T05:21:02;97623.03;;;13.94;100.00
70103;BME280;57470;50.034;15.256;2023-10-31T05:23:27;97624.84;;;13.93;100.00
70103;BME280;57470;50.034;15.256;2023-10-31T05:25:53;97617.94;;;13.60;100.00
70103;BME280;57470;50.034;15.256;2023-10-31T05:28:18;97629.44;;;13.68;100.00
70103;BME280;57470;50.034;15.256;2023-10-31T05:30:43;97627.25;;;13.64;100.00
70103;BME280;57470;50.034;15.256;2023-10-31T05:33:09;97640.78;;;13.54;100.00
70103;BME280;57470;50.034;15.256;2023-10-31T05:35:35;97636.94;;;13.65;100.00
70103;BME280;57470;50.034;15.256;2023-10-31T05:38:00;97649.56;;;13.87;100.00
70103;BME280;57470;50.034;15.256;2023-10-31T05:40:26;97660.41;;;14.02;100.00
70103;BME280;57470;50.034;15.256;2023-10-31T05:42:52;97656.97;;;13.69;100.00
70103;BME280;57470;50.034;15.256;2023-10-31T05:45:18;97677.78;;;13.98;100.00
70103;BME280;57470;50.034;15.256;2023-10-31T05:47:43;97661.47;;;13.60;100.00
70103;BME280;57470;50.034;15.256;2023-10-31T05:50:09;97676.19;;;13.56;100.00
70103;BME280;57470;50.034;15.256;2023-10-31T05:52:34;97674.00;;;13.76;100.00
70103;BME280;57470;50.034;15.256;2023-10-31T05:55:00;97674.34;;;13.32;100.00
70103;BME280;57470;50.034;15.256;2023-10-31T05:57:25;97699.38;;;13.64;100.00
70103;BME280;57470;50.034;15.256;2023-10-31T05:59:50;97696.19;;;13.52;100.00
70103;BME280;57470;50.034;15.256;2023-10-31T06:02:16;97706.22;;;13.74;100.00
70103;BME280;57470;50.034;15.256;2023-10-31T06:04:41;97709.38;;;13.78;100.00
70103;BME280;57470;50.034;15.256;2023-10-31T06:07:07;97712.25;;;13.68;100.00
70103;BME280;57470;50.034;15.256;2023-10-31T06:09:33;97715.41;;;13.80;100.00
70103;BME280;57470;50.034;15.256;2023-10-31T06:11:59;97718.53;;;14.08;100.00
70103;BME280;57470;50.034;15.256;2023-10-31T06:14:25;97710.03;;;13.88;100.00
70103;BME280;57470;50.034;15.256;2023-10-31T06:16:51;97712.91;;;13.95;100.00
70103;BME280;57470;50.034;15.256;2023-10-31T06:19:16;97719.44;;;13.68;100.00
70103;BME280;57470;50.034;15.256;2023-10-31T06:21:41;97733.78;;;13.75;100.00
70103;BME280;57470;50.034;15.256;2023-10-31T06:24:07;97751.47;;;13.92;100.00
70103;BME280;57470;50.034;15.256;2023-10-31T06:26:33;97756.84;;;13.60;100.00
70103;BME280;57470;50.034;15.256;2023-10-31T06:28:58;97774.53;;;13.85;100.00
70103;BME280;57470;50.034;15.256;2023-10-31T06:31:23;97772.66;;;13.61;100.00
70103;BME280;57470;50.034;15.256;2023-10-31T06:33:49;97783.56;;;13.68;100.00
70103;BME280;57470;50.034;15.256;2023-10-31T06:36:14;97775.16;;;13.55;100.00
70103;BME280;57470;50.034;15.256;2023-10-31T06:38:40;97771.34;;;13.57;100.00
70103;BME280;57470;50.034;15.256;2023-10-31T06:41:05;97771.88;;;13.85;100.00
70103;BME280;57470;50.034;15.256;2023-10-31T06:43:31;97760.81;;;13.72;100.00
70103;BME280;57470;50.034;15.256;2023-10-31T06:45:56;97755.16;;;13.91;100.00
70103;BME280;57470;50.034;15.256;2023-10-31T06:48:25;97745.59;;;14.05;100.00
70103;BME280;57470;50.034;15.256;2023-10-31T06:50:50;97740.28;;;14.13;100.00
70103;BME280;57470;50.034;15.256;2023-10-31T06:53:16;97739.88;;;14.32;100.00
70103;BME280;57470;50.034;15.256;2023-10-31T06:55:41;97734.38;;;14.25;100.00
70103;BME280;57470;50.034;15.256;2023-10-31T06:58:06;97739.09;;;14.07;100.00
70103;BME280;57470;50.034;15.256;2023-10-31T07:00:32;97739.63;;;14.03;100.00
70103;BME280;57470;50.034;15.256;2023-10-31T07:02:57;97763.81;;;14.09;100.00
70103;BME280;57470;50.034;15.256;2023-10-31T07:05:24;97773.50;;;14.18;100.00
70103;BME280;57470;50.034;15.256;2023-10-31T07:07:50;97777.69;;;14.21;100.00
70103;BME280;57470;50.034;15.256;2023-10-31T07:10:15;97786.22;;;14.00;100.00
70103;BME280;57470;50.034;15.256;2023-10-31T07:12:40;97794.06;;;14.10;100.00
70103;BME280;57470;50.034;15.256;2023-10-31T07:15:06;97804.59;;;14.11;100.00
70103;BME280;57470;50.034;15.256;2023-10-31T07:17:32;97806.75;;;14.16;100.00
70103;BME280;57470;50.034;15.256;2023-10-31T07:19:58;97812.28;;;14.31;100.00
70103;BME280;57470;50.034;15.256;2023-10-31T07:22:23;97812.63;;;13.95;100.00
70103;BME280;57470;50.034;15.256;2023-10-31T07:24:50;97824.16;;;14.20;100.00
70103;BME280;57470;50.034;15.256;2023-10-31T07:27:16;97833.84;;;14.13;99.53
70103;BME280;57470;50.034;15.256;2023-10-31T07:29:41;97841.03;;;14.04;100.00
70103;BME280;57470;50.034;15.256;2023-10-31T07:32:08;97837.34;;;13.97;100.00
70103;BME280;57470;50.034;15.256;2023-10-31T07:34:34;97840.03;;;14.46;100.00
70103;BME280;57470;50.034;15.256;2023-10-31T07:36:59;97849.38;;;14.25;99.18
70103;BME280;57470;50.034;15.256;2023-10-31T07:39:25;97839.69;;;14.00;99.76
70103;BME280;57470;50.034;15.256;2023-10-31T07:41:51;97848.06;;;14.21;98.67
70103;BME280;57470;50.034;15.256;2023-10-31T07:44:16;97855.41;;;14.19;99.32
70103;BME280;57470;50.034;15.256;2023-10-31T07:46:41;97863.41;;;14.36;98.71
70103;BME280;57470;50.034;15.256;2023-10-31T07:49:07;97866.47;;;14.49;97.88
70103;BME280;57470;50.034;15.256;2023-10-31T07:51:32;97846.38;;;14.20;96.93
70103;BME280;57470;50.034;15.256;2023-10-31T07:53:58;97847.03;;;14.14;97.53
70103;BME280;57470;50.034;15.256;2023-10-31T07:56:24;97856.22;;;14.60;95.83
70103;BME280;57470;50.034;15.256;2023-10-31T07:58:50;97851.72;;;14.37;95.57
70103;BME280;57470;50.034;15.256;2023-10-31T08:01:19;97852.22;;;14.56;95.27
70103;BME280;57470;50.034;15.256;2023-10-31T08:03:46;97856.00;;;14.86;95.24
70103;BME280;57470;50.034;15.256;2023-10-31T08:06:12;97851.66;;;14.93;94.85
70103;BME280;57470;50.034;15.256;2023-10-31T08:08:37;97835.66;;;14.61;94.00
70103;BME280;57470;50.034;15.256;2023-10-31T08:11:03;97824.75;;;14.71;92.93
70103;BME280;57470;50.034;15.256;2023-10-31T08:13:29;97831.13;;;14.61;92.66
70103;BME280;57470;50.034;15.256;2023-10-31T08:15:55;97859.06;;;14.75;93.00
70103;BME280;57470;50.034;15.256;2023-10-31T08:18:22;97862.19;;;14.79;92.55
70103;BME280;57470;50.034;15.256;2023-10-31T08:20:49;97859.25;;;14.49;93.13
70103;BME280;57470;50.034;15.256;2023-10-31T08:23:16;97864.94;;;14.46;93.95
70103;BME280;57470;50.034;15.256;2023-10-31T08:25:43;97873.09;;;14.37;94.39
70103;BME280;57470;50.034;15.256;2023-10-31T08:28:08;97882.47;;;14.65;94.77
70103;BME280;57470;50.034;15.256;2023-10-31T08:30:34;97887.19;;;14.55;94.57
70103;BME280;57470;50.034;15.256;2023-10-31T08:33:00;97894.81;;;14.17;95.97
70103;BME280;57470;50.034;15.256;2023-10-31T08:35:26;97926.63;;;14.61;94.69
70103;BME280;57470;50.034;15.256;2023-10-31T08:37:51;97926.63;;;14.45;95.10
70103;BME280;57470;50.034;15.256;2023-10-31T08:40:17;97918.03;;;14.09;95.53
70103;BME280;57470;50.034;15.256;2023-10-31T08:42:43;97925.47;;;14.39;94.34
70103;BME280;57470;50.034;15.256;2023-10-31T08:45:09;97937.00;;;14.64;94.29
70103;BME280;57470;50.034;15.256;2023-10-31T08:47:34;97925.41;;;14.23;94.58
70103;BME280;57470;50.034;15.256;2023-10-31T08:50:00;97938.28;;;14.27;93.44
70103;BME280;57470;50.034;15.256;2023-10-31T08:52:25;97951.66;;;14.19;92.87
70103;BME280;57470;50.034;15.256;2023-10-31T08:54:50;97970.09;;;14.39;92.97
70103;BME280;57470;50.034;15.256;2023-10-31T08:57:16;97975.47;;;14.63;91.04
70103;BME280;57470;50.034;15.256;2023-10-31T08:59:41;97961.53;;;14.35;89.65
70103;BME280;57470;50.034;15.256;2023-10-31T09:02:07;97949.81;;;14.20;90.70
70103;BME280;57470;50.034;15.256;2023-10-31T09:04:32;97962.03;;;14.22;91.14
70103;BME280;57470;50.034;15.256;2023-10-31T09:06:57;97961.69;;;14.34;90.04
70103;BME280;57470;50.034;15.256;2023-10-31T09:09:23;97975.28;;;14.40;90.51
70103;BME280;57470;50.034;15.256;2023-10-31T09:11:48;97973.13;;;14.52;89.83
70103;BME280;57470;50.034;15.256;2023-10-31T09:14:13;97975.31;;;14.56;89.06
70103;BME280;57470;50.034;15.256;2023-10-31T09:16:39;97979.28;;;14.77;87.94
70103;BME280;57470;50.034;15.256;2023-10-31T09:19:04;97964.09;;;14.53;88.62
70103;BME280;57470;50.034;15.256;2023-10-31T09:21:29;97971.78;;;14.80;87.38
70103;BME280;57470;50.034;15.256;2023-10-31T09:23:55;97969.41;;;14.85;87.67
70103;BME280;57470;50.034;15.256;2023-10-31T09:26:20;97973.97;;;14.85;87.29
70103;BME280;57470;50.034;15.256;2023-10-31T09:28:46;97984.81;;;14.91;87.83
70103;BME280;57470;50.034;15.256;2023-10-31T09:31:17;97976.31;;;14.72;87.05
70103;BME280;57470;50.034;15.256;2023-10-31T09:33:43;97974.47;;;14.72;87.81
70103;BME280;57470;50.034;15.256;2023-10-31T09:36:09;97965.09;;;14.52;85.95
70103;BME280;57470;50.034;15.256;2023-10-31T09:38:34;97968.94;;;14.66;85.28
70103;BME280;57470;50.034;15.256;2023-10-31T09:40:59;97959.84;;;14.26;85.19
70103;BME280;57470;50.034;15.256;2023-10-31T09:43:25;97964.41;;;14.50;85.81
70103;BME280;57470;50.034;15.256;2023-10-31T09:45:51;97971.94;;;14.62;85.80
70103;BME280;57470;50.034;15.256;2023-10-31T09:48:18;97955.72;;;14.40;83.06
70103;BME280;57470;50.034;15.256;2023-10-31T09:50:44;97953.81;;;14.24;82.35
70103;BME280;57470;50.034;15.256;2023-10-31T09:53:11;97939.97;;;14.20;83.27
70103;BME280;57470;50.034;15.256;2023-10-31T09:55:36;97948.31;;;14.34;82.96
70103;BME280;57470;50.034;15.256;2023-10-31T09:58:02;97955.03;;;14.38;83.35
70103;BME280;57470;50.034;15.256;2023-10-31T10:00:28;97947.63;;;14.23;82.24
70103;BME280;57470;50.034;15.256;2023-10-31T10:02:54;97938.59;;;14.08;82.07
70103;BME280;57470;50.034;15.256;2023-10-31T10:05:20;97937.09;;;14.14;81.90
70103;BME280;57470;50.034;15.256;2023-10-31T10:07:48;97937.78;;;14.16;81.77
70103;BME280;57470;50.034;15.256;2023-10-31T10:10:13;97937.63;;;14.34;82.88
70103;BME280;57470;50.034;15.256;2023-10-31T10:12:43;97934.50;;;14.46;82.16
70103;BME280;57470;50.034;15.256;2023-10-31T10:15:10;97939.97;;;14.28;82.51
70103;BME280;57470;50.034;15.256;2023-10-31T10:17:36;97941.34;;;14.65;82.59
70103;BME280;57470;50.034;15.256;2023-10-31T10:20:09;97927.91;;;14.33;80.48
70103;BME280;57470;50.034;15.256;2023-10-31T10:22:42;97941.34;;;14.65;79.89
70103;BME280;57470;50.034;15.256;2023-10-31T10:25:09;97942.00;;;14.59;79.55
70103;BME280;57470;50.034;15.256;2023-10-31T10:27:37;97954.72;;;14.89;78.94
70103;BME280;57470;50.034;15.256;2023-10-31T10:30:03;97946.16;;;14.86;78.83
70103;BME280;57470;50.034;15.256;2023-10-31T10:32:29;97949.50;;;14.96;78.30
70103;BME280;57470;50.034;15.256;2023-10-31T10:34:55;97952.34;;;14.86;78.08
70103;BME280;57470;50.034;15.256;2023-10-31T10:37:21;97950.22;;;14.57;79.40
70103;BME280;57470;50.034;15.256;2023-10-31T10:39:47;97953.38;;;14.69;79.54
70103;BME280;57470;50.034;15.256;2023-10-31T10:42:17;97949.38;;;14.65;80.36
70103;BME280;57470;50.034;15.256;2023-10-31T10:44:44;97954.03;;;14.79;79.61
70103;BME280;57470;50.034;15.256;2023-10-31T10:47:12;97965.91;;;14.93;79.86
70103;BME280;57470;50.034;15.256;2023-10-31T10:49:41;97958.56;;;14.54;79.88
70103;BME280;57470;50.034;15.256;2023-10-31T10:54:44;97998.88;;;14.61;80.88
70103;BME280;57470;50.034;15.256;2023-10-31T10:57:15;98013.88;;;14.38;81.13
70103;BME280;57470;50.034;15.256;2023-10-31T10:59:43;98016.00;;;14.26;80.86
70103;BME280;57470;50.034;15.256;2023-10-31T11:02:14;98022.22;;;14.35;80.73
70103;BME280;57470;50.034;15.256;2023-10-31T11:04:42;98039.59;;;14.22;82.26
70103;BME280;57470;50.034;15.256;2023-10-31T11:07:08;98040.78;;;13.86;82.87
70103;BME280;57470;50.034;15.256;2023-10-31T11:09:34;98043.59;;;14.26;82.17
70103;BME280;57470;50.034;15.256;2023-10-31T11:12:01;98043.38;;;14.62;81.49
70103;BME280;57470;50.034;15.256;2023-10-31T11:14:27;98030.75;;;14.38;81.42
70103;BME280;57470;50.034;15.256;2023-10-31T11:16:56;98026.22;;;14.22;81.91
70103;BME280;57470;50.034;15.256;2023-10-31T11:19:26;98023.88;;;14.27;82.04
70103;BME280;57470;50.034;15.256;2023-10-31T11:21:57;98021.88;;;14.30;81.67
70103;BME280;57470;50.034;15.256;2023-10-31T11:24:23;98034.91;;;14.33;81.64
70103;BME280;57470;50.034;15.256;2023-10-31T11:26:52;98043.66;;;14.43;81.79
70103;BME280;57470;50.034;15.256;2023-10-31T11:29:17;98042.94;;;14.33;81.56
70103;BME280;57470;50.034;15.256;2023-10-31T11:31:43;98056.75;;;14.62;80.60
70103;BME280;57470;50.034;15.256;2023-10-31T11:34:08;98068.28;;;14.54;82.08
70103;BME280;57470;50.034;15.256;2023-10-31T11:36:36;98066.94;;;14.08;81.94
70103;BME280;57470;50.034;15.256;2023-10-31T11:39:12;98070.47;;;14.17;80.75
70103;BME280;57470;50.034;15.256;2023-10-31T11:41:45;98074.09;;;14.42;82.03
70103;BME280;57470;50.034;15.256;2023-10-31T11:44:15;98068.44;;;14.61;81.50
70103;BME280;57470;50.034;15.256;2023-10-31T11:46:40;98066.81;;;14.18;80.89
70103;BME280;57470;50.034;15.256;2023-10-31T11:49:06;98058.66;;;14.36;80.73
70103;BME280;57470;50.034;15.256;2023-10-31T11:51:32;98057.91;;;14.09;81.16
70103;BME280;57470;50.034;15.256;2023-10-31T11:53:59;98062.75;;;14.48;80.22
70103;BME280;57470;50.034;15.256;2023-10-31T11:56:26;98067.59;;;14.60;80.49
70103;BME280;57470;50.034;15.256;2023-10-31T11:59:00;98064.22;;;14.50;81.25
70103;BME280;57470;50.034;15.256;2023-10-31T12:01:26;98071.47;;;14.58;79.39
70103;BME280;57470;50.034;15.256;2023-10-31T12:03:51;98063.16;;;14.27;80.71
70103;BME280;57470;50.034;15.256;2023-10-31T12:06:17;98060.25;;;14.54;80.22
70103;BME280;57470;50.034;15.256;2023-10-31T12:08:45;98042.78;;;14.34;79.92
70103;BME280;57470;50.034;15.256;2023-10-31T12:11:20;98036.91;;;14.22;80.85
70103;BME280;57470;50.034;15.256;2023-10-31T12:14:00;98033.59;;;14.37;80.71
70103;BME280;57470;50.034;15.256;2023-10-31T12:16:30;98044.19;;;14.62;80.11
70103;BME280;57470;50.034;15.256;2023-10-31T12:18:58;98050.47;;;14.37;81.04
70103;BME280;57470;50.034;15.256;2023-10-31T12:21:45;98065.06;;;14.51;80.98
70103;BME280;57470;50.034;15.256;2023-10-31T12:24:17;98071.09;;;14.53;81.01
70103;BME280;57470;50.034;15.256;2023-10-31T12:26:43;98066.84;;;14.34;81.05
70103;BME280;57470;50.034;15.256;2023-10-31T12:29:14;98062.97;;;14.20;81.28
70103;BME280;57470;50.034;15.256;2023-10-31T12:31:47;98073.25;;;14.41;80.43
70103;BME280;57470;50.034;15.256;2023-10-31T12:34:17;98063.59;;;14.14;81.19
70103;BME280;57470;50.034;15.256;2023-10-31T12:36:44;98062.88;;;13.96;82.19
70103;BME280;57470;50.034;15.256;2023-10-31T12:39:11;98071.31;;;14.17;81.81
70103;BME280;57470;50.034;15.256;2023-10-31T12:41:38;98063.53;;;13.98;82.64
70103;BME280;57470;50.034;15.256;2023-10-31T12:44:05;98068.41;;;13.95;83.20